createdAt,value
2023-04-15T00:02:14.717Z,99672.38
2023-04-15T00:06:16.419Z,99673.03
2023-04-15T00:10:17.946Z,99671.31
2023-04-15T00:14:19.441Z,99660.44
2023-04-15T00:18:20.988Z,99657.91
2023-04-15T00:22:22.658Z,99660.53
2023-04-15T00:26:24.197Z,99661.41
2023-04-15T00:30:26.616Z,99654.63
2023-04-15T00:34:28.916Z,99650.25
2023-04-15T00:38:30.453Z,99643.38
2023-04-15T00:42:32.153Z,99645.06
2023-04-15T00:46:37.189Z,99644.19
2023-04-15T00:50:39.127Z,99641.66
2023-04-15T00:54:40.694Z,99646.38
2023-04-15T00:58:42.477Z,99652.81
2023-04-15T01:02:44.277Z,99649.75
2023-04-15T01:06:45.996Z,99647.78
2023-04-15T01:10:47.722Z,99646.94
2023-04-15T01:14:49.326Z,99643.47
2023-04-15T01:18:52.124Z,99647.69
2023-04-15T01:22:54.809Z,99643.41
2023-04-15T01:26:56.558Z,99640.78
2023-04-15T01:31:13.464Z,99639.06
2023-04-15T01:35:15.036Z,99654.25
2023-04-15T01:39:16.658Z,99659.31
2023-04-15T01:43:19.005Z,99659.06
2023-04-15T01:47:20.634Z,99654.59
2023-04-15T01:51:23.187Z,99647.63
2023-04-15T01:55:24.719Z,99653.47
2023-04-15T01:59:26.305Z,99654.31
2023-04-15T02:03:29.692Z,99653.44
2023-04-15T02:07:32.305Z,99648.28
2023-04-15T02:11:35.170Z,99653.13
2023-04-15T02:15:38.207Z,99657.94
2023-04-15T02:19:40.503Z,99653.78
2023-04-15T02:23:42.110Z,99645.22
2023-04-15T02:27:46.577Z,99662.16
2023-04-15T02:31:48.451Z,99654.41
2023-04-15T02:35:50.037Z,99658.81
2023-04-15T02:39:51.586Z,99661.78
2023-04-15T02:43:54.807Z,99651.47
2023-04-15T02:47:56.768Z,99654.84
2023-04-15T02:51:59.947Z,99653.78
2023-04-15T02:56:01.644Z,99653.44
2023-04-15T03:00:04.843Z,99656.78
2023-04-15T03:04:09.053Z,99662.81
2023-04-15T03:08:11.354Z,99656.00
2023-04-15T03:12:12.933Z,99666.94
2023-04-15T03:16:14.632Z,99662.56
2023-04-15T03:20:17.198Z,99665.84
2023-04-15T03:24:18.870Z,99662.19
2023-04-15T03:28:20.494Z,99660.56
2023-04-15T03:32:23.400Z,99667.91
2023-04-15T03:36:25.853Z,99661.84
2023-04-15T03:40:27.355Z,99666.06
2023-04-15T03:44:28.928Z,99663.56
2023-04-15T03:48:30.606Z,99670.41
2023-04-15T03:52:32.097Z,99669.56
2023-04-15T03:56:33.642Z,99666.84
2023-04-15T04:00:35.405Z,99661.38
2023-04-15T04:04:37.256Z,99668.72
2023-04-15T04:08:38.886Z,99659.38
2023-04-15T04:12:40.430Z,99664.31
2023-04-15T04:16:42.116Z,99668.72
2023-04-15T04:20:43.780Z,99675.47
2023-04-15T04:24:45.269Z,99678.75
2023-04-15T04:28:46.867Z,99677.75
2023-04-15T04:32:49.914Z,99690.34
2023-04-15T04:36:51.564Z,99688.63
2023-04-15T04:40:53.111Z,99690.25
2023-04-15T04:44:54.768Z,99685.91
2023-04-15T04:48:56.282Z,99687.72
2023-04-15T04:52:57.820Z,99675.94
2023-04-15T04:56:59.985Z,99684.56
2023-04-15T05:01:02.996Z,99690.53
2023-04-15T05:05:04.866Z,99682.22
2023-04-15T05:09:06.615Z,99692.47
2023-04-15T05:13:08.152Z,99698.28
2023-04-15T05:17:11.110Z,99706.69
2023-04-15T05:21:12.650Z,99704.97
2023-04-15T05:25:14.387Z,99720.25
2023-04-15T05:29:16.132Z,99716.06
2023-04-15T05:33:17.669Z,99717.06
2023-04-15T05:37:20.970Z,99721.41
2023-04-15T05:41:22.635Z,99720.47
2023-04-15T05:45:24.160Z,99718.75
2023-04-15T05:49:25.704Z,99726.38
2023-04-15T05:53:27.316Z,99729.38
2023-04-15T05:57:28.882Z,99723.16
2023-04-15T06:01:30.555Z,99728.22
2023-04-15T06:05:32.082Z,99728.69
2023-04-15T06:09:33.792Z,99723.34
2023-04-15T06:13:35.318Z,99726.94
2023-04-15T06:17:37.332Z,99720.22
2023-04-15T06:21:38.904Z,99717.09
2023-04-15T06:25:40.521Z,99732.75
2023-04-15T06:29:42.130Z,99735.00
2023-04-15T06:33:43.640Z,99731.59
2023-04-15T06:37:45.450Z,99732.03
2023-04-15T06:41:47.282Z,99736.91
2023-04-15T06:45:48.913Z,99738.50
2023-04-15T06:49:50.499Z,99740.00
2023-04-15T06:53:52.059Z,99728.72
2023-04-15T06:57:53.583Z,99719.50
2023-04-15T07:01:55.211Z,99720.09
2023-04-15T07:05:56.898Z,99721.47
2023-04-15T07:09:58.645Z,99717.84
2023-04-15T07:14:00.370Z,99715.13
2023-04-15T07:18:01.995Z,99706.53
2023-04-15T07:22:03.866Z,99701.66
2023-04-15T07:26:05.897Z,99702.31
2023-04-15T07:30:09.066Z,99704.53
2023-04-15T07:34:10.720Z,99708.50
2023-04-15T07:38:14.949Z,99713.38
2023-04-15T07:42:16.787Z,99715.47
2023-04-15T07:46:18.488Z,99710.03
2023-04-15T07:50:20.169Z,99711.41
2023-04-15T07:54:21.831Z,99711.84
2023-04-15T07:58:23.471Z,99712.16
2023-04-15T08:02:25.202Z,99703.75
2023-04-15T08:06:27.499Z,99712.28
2023-04-15T08:10:30.301Z,99698.28
2023-04-15T08:14:31.814Z,99707.28
2023-04-15T08:18:33.332Z,99711.63
2023-04-15T08:22:35.616Z,99708.06
2023-04-15T08:26:37.181Z,99711.31
2023-04-15T08:30:38.765Z,99712.53
2023-04-15T08:34:40.305Z,99713.31
2023-04-15T08:38:41.934Z,99712.41
2023-04-15T08:42:49.075Z,99717.75
2023-04-15T08:46:52.486Z,99709.47
2023-04-15T08:50:54.307Z,99722.66
2023-04-15T08:54:58.931Z,99720.59
2023-04-15T08:59:00.856Z,99725.22
2023-04-15T09:03:02.797Z,99724.88
2023-04-15T09:07:04.832Z,99725.00
2023-04-15T09:11:06.475Z,99726.91
2023-04-15T09:15:11.090Z,99733.75
2023-04-15T09:19:23.827Z,99729.56
2023-04-15T09:23:25.392Z,99736.41
2023-04-15T09:27:26.925Z,99744.13
2023-04-15T09:31:31.583Z,99740.75
2023-04-15T09:35:33.665Z,99740.91
2023-04-15T09:39:52.268Z,99743.69
2023-04-15T09:43:53.884Z,99749.34
2023-04-15T09:47:59.088Z,99736.94
2023-04-15T09:52:06.092Z,99738.88
2023-04-15T09:56:09.080Z,99740.81
2023-04-15T10:00:11.475Z,99746.09
2023-04-15T10:04:13.415Z,99749.53
2023-04-15T10:08:17.825Z,99750.63
2023-04-15T10:12:20.248Z,99751.03
2023-04-15T10:16:27.480Z,99752.03
2023-04-15T10:20:29.500Z,99745.22
2023-04-15T10:24:34.154Z,99742.69
2023-04-15T10:28:35.666Z,99748.66
2023-04-15T10:32:38.241Z,99753.09
2023-04-15T10:36:39.864Z,99750.59
2023-04-15T10:40:45.367Z,99749.78
2023-04-15T10:44:54.305Z,99753.31
2023-04-15T10:48:55.860Z,99772.16
2023-04-15T10:52:57.634Z,99765.22
2023-04-15T10:57:02.535Z,99774.69
2023-04-15T11:01:04.471Z,99772.25
2023-04-15T11:05:06.611Z,99768.97
2023-04-15T11:09:09.662Z,99764.72
2023-04-15T11:13:11.285Z,99770.72
2023-04-15T11:17:12.852Z,99774.19
2023-04-15T11:21:14.497Z,99775.06
2023-04-15T11:25:26.567Z,99781.09
2023-04-15T11:29:33.101Z,99781.97
2023-04-15T11:33:34.624Z,99791.53
2023-04-15T11:37:36.207Z,99794.19
2023-04-15T11:41:37.814Z,99792.50
2023-04-15T11:46:01.412Z,99797.72
2023-04-15T11:50:19.329Z,99791.66
2023-04-15T11:54:20.925Z,99796.81
2023-04-15T11:58:26.606Z,99797.72
2023-04-15T12:02:33.050Z,99799.41
2023-04-15T12:06:38.890Z,99814.88
2023-04-15T12:10:40.584Z,99811.44
2023-04-15T12:14:42.357Z,99825.19
2023-04-15T12:18:46.187Z,99828.69
2023-04-15T12:22:47.714Z,99828.72
2023-04-15T12:26:52.644Z,99831.34
2023-04-15T12:30:54.362Z,99837.28
2023-04-15T12:34:55.942Z,99841.53
2023-04-15T12:38:57.514Z,99849.25
2023-04-15T12:42:59.123Z,99849.19
2023-04-15T12:47:01.222Z,99852.38
2023-04-15T12:51:05.095Z,99859.13
2023-04-15T12:55:07.693Z,99865.81
2023-04-15T12:59:09.323Z,99874.31
2023-04-15T13:03:10.946Z,99874.31
2023-04-15T13:07:14.047Z,99868.19
2023-04-15T13:11:15.654Z,99878.25
2023-04-15T13:15:20.602Z,99877.34
2023-04-15T13:19:22.155Z,99876.53
2023-04-15T13:23:23.710Z,99887.84
2023-04-15T13:27:25.271Z,99892.22
2023-04-15T13:31:27.255Z,99887.13
2023-04-15T13:35:28.874Z,99893.09
2023-04-15T13:39:30.624Z,99893.13
2023-04-15T13:43:34.189Z,99893.16
2023-04-15T13:47:36.080Z,99897.75
2023-04-15T13:51:37.675Z,99902.84
2023-04-15T13:55:42.735Z,99911.38
2023-04-15T13:59:44.447Z,99905.34
2023-04-15T14:03:46.309Z,99914.03
2023-04-15T14:07:48.185Z,99914.03
2023-04-15T14:11:53.180Z,99917.50
2023-04-15T14:15:54.938Z,99930.63
2023-04-15T14:19:56.582Z,99915.31
2023-04-15T14:23:58.752Z,99928.25
2023-04-15T14:28:00.445Z,99928.97
2023-04-15T14:32:04.281Z,99937.38
2023-04-15T14:36:13.377Z,99950.16
2023-04-15T14:40:14.949Z,99968.25
2023-04-15T14:44:16.564Z,99967.34
2023-04-15T14:48:18.173Z,99976.69
2023-04-15T14:52:19.742Z,99995.63
2023-04-15T14:56:21.281Z,100002.56
2023-04-15T15:00:22.918Z,100024.66
2023-04-15T15:04:24.571Z,100027.31
2023-04-15T15:08:26.220Z,100022.34
2023-04-15T15:12:27.793Z,100051.44
2023-04-15T15:16:29.487Z,100053.44
2023-04-15T15:20:31.339Z,100059.03
2023-04-15T15:24:32.985Z,100069.75
2023-04-15T15:28:34.894Z,100072.19
2023-04-15T15:32:36.568Z,100084.50
2023-04-15T15:36:38.167Z,100094.53
2023-04-15T15:40:39.794Z,100097.69
2023-04-15T15:44:41.362Z,100108.72
2023-04-15T15:48:43.344Z,100103.69
2023-04-15T15:52:44.897Z,100110.53
2023-04-15T15:56:46.417Z,100122.91
2023-04-15T16:00:48.134Z,100136.06
2023-04-15T16:04:51.194Z,100141.34
2023-04-15T16:08:52.744Z,100151.63
2023-04-15T16:12:54.580Z,100160.81
2023-04-15T16:16:56.268Z,100170.09
2023-04-15T16:20:58.457Z,100172.63
2023-04-15T16:25:00.420Z,100178.66
2023-04-15T16:29:02.305Z,100193.88
2023-04-15T16:33:07.988Z,100203.94
2023-04-15T16:37:09.769Z,100199.16
2023-04-15T16:41:11.263Z,100205.38
2023-04-15T16:45:12.824Z,100213.59
2023-04-15T16:49:14.380Z,100217.69
2023-04-15T16:53:16.139Z,100222.38
2023-04-15T16:57:17.674Z,100227.94
2023-04-15T17:01:21.587Z,100233.72
2023-04-15T17:05:23.215Z,100234.19
2023-04-15T17:09:24.737Z,100239.53
2023-04-15T17:13:26.608Z,100255.84
2023-04-15T17:17:28.181Z,100265.13
2023-04-15T17:21:29.769Z,100256.69
2023-04-15T17:25:31.453Z,100267.53
2023-04-15T17:29:33.219Z,100290.31
2023-04-15T17:33:59.860Z,100284.06
2023-04-15T17:37:56.396Z,100299.41
2023-04-15T17:41:58.160Z,100302.03
2023-04-15T17:45:59.766Z,100304.91
2023-04-15T17:50:03.478Z,100307.06
2023-04-15T17:54:05.627Z,100322.41
2023-04-15T17:58:07.570Z,100323.13
2023-04-15T18:02:10.090Z,100335.44
2023-04-15T18:06:12.243Z,100342.59
2023-04-15T18:10:13.795Z,100345.91
2023-04-15T18:14:26.662Z,100355.56
2023-04-15T18:18:34.912Z,100347.84
2023-04-15T18:22:36.626Z,100348.22
2023-04-15T18:26:38.258Z,100361.88
2023-04-15T18:30:39.866Z,100365.88
2023-04-15T18:34:42.786Z,100368.28
2023-04-15T18:38:47.624Z,100375.44
2023-04-15T18:42:49.151Z,100385.22
2023-04-15T18:46:50.843Z,100389.81
2023-04-15T18:50:54.032Z,100393.94
2023-04-15T18:54:55.783Z,100405.97
2023-04-15T18:59:28.173Z,100406.31
2023-04-15T19:03:19.368Z,100417.41
2023-04-15T19:07:21.421Z,100412.38
2023-04-15T19:11:23.031Z,100416.44
2023-04-15T19:15:24.606Z,100421.19
2023-04-15T19:19:26.298Z,100434.09
2023-04-15T19:23:27.990Z,100437.03
2023-04-15T19:27:30.067Z,100442.00
2023-04-15T19:31:31.673Z,100444.31
2023-04-15T19:35:33.694Z,100449.88
2023-04-15T19:39:35.415Z,100448.44
2023-04-15T19:43:37.306Z,100456.81
2023-04-15T19:47:39.034Z,100462.53
2023-04-15T19:51:41.553Z,100462.00
2023-04-15T19:55:43.431Z,100465.19
2023-04-15T19:59:45.098Z,100465.06
2023-04-15T20:03:47.371Z,100467.28
2023-04-15T20:07:51.894Z,100474.94
2023-04-15T20:12:05.708Z,100476.84
2023-04-15T20:16:16.037Z,100473.59
2023-04-15T20:20:17.708Z,100474.06
2023-04-15T20:24:20.268Z,100478.94
2023-04-15T20:28:23.347Z,100476.28
2023-04-15T20:32:24.964Z,100488.28
2023-04-15T20:36:26.740Z,100485.72
2023-04-15T20:40:28.435Z,100489.13
2023-04-15T20:44:30.473Z,100495.38
2023-04-15T20:48:32.037Z,100496.66
2023-04-15T20:52:33.712Z,100496.25
2023-04-15T20:56:35.394Z,100498.31
2023-04-15T21:00:37.297Z,100498.94
2023-04-15T21:04:39.001Z,100500.38
2023-04-15T21:08:40.739Z,100503.13
2023-04-15T21:12:42.518Z,100503.34
2023-04-15T21:16:44.368Z,100510.28
2023-04-15T21:20:46.433Z,100509.56
2023-04-15T21:24:48.712Z,100505.31
2023-04-15T21:28:50.239Z,100520.63
2023-04-15T21:32:51.902Z,100516.50
2023-04-15T21:36:53.488Z,100522.34
2023-04-15T21:40:55.154Z,100529.97
2023-04-15T21:44:56.782Z,100532.69
2023-04-15T21:48:58.346Z,100536.91
2023-04-15T21:52:59.884Z,100550.34
2023-04-15T21:57:01.796Z,100543.56
2023-04-15T22:01:04.370Z,100548.03
2023-04-15T22:05:07.240Z,100543.94
2023-04-15T22:09:09.715Z,100547.31
2023-04-15T22:13:13.226Z,100540.56
2023-04-15T22:17:14.944Z,100536.41
2023-04-15T22:21:16.540Z,100551.13
2023-04-15T22:25:18.335Z,100556.13
2023-04-15T22:29:19.889Z,100559.47
2023-04-15T22:33:21.465Z,100572.25
2023-04-15T22:37:23.925Z,100575.75
2023-04-15T22:41:25.552Z,100582.59
2023-04-15T22:45:27.153Z,100581.81
2023-04-15T22:49:28.732Z,100592.03
2023-04-15T22:53:30.533Z,100604.00
2023-04-15T22:57:32.229Z,100605.91
2023-04-15T23:01:34.008Z,100600.63
2023-04-15T23:05:35.811Z,100611.13
2023-04-15T23:09:38.033Z,100615.50
2023-04-15T23:13:39.622Z,100615.75
2023-04-15T23:17:42.188Z,100622.47
2023-04-15T23:21:43.786Z,100613.81
2023-04-15T23:25:45.282Z,100615.56
2023-04-15T23:29:46.972Z,100616.63
2023-04-15T23:33:48.641Z,100622.44
2023-04-15T23:37:50.243Z,100631.84
2023-04-15T23:41:51.897Z,100623.72
2023-04-15T23:45:53.472Z,100630.31
2023-04-15T23:49:55.035Z,100631.19
2023-04-15T23:53:56.590Z,100630.28
2023-04-15T23:57:58.156Z,100632.63
